Time;durP1;ratioP1;P1;durP2;ratioP2;P2;SDS_P1;SDS_P2;PMS_P1;PMS_P2;Temp;Humidity;BMP_temperature;BMP_pressure;BME280_temperature;BME280_humidity;BME280_pressure;Samples;Min_cycle;Max_cycle;Signal;HPM_P1;HPM_P2
2024/03/25 00:01:45;;;;;;;14.37;6.00;;;7.50;99.90;;;;;;5017307;28;20207;-61
2024/03/25 00:04:12;;;;;;;15.33;5.57;;;7.50;99.90;;;;;;5017254;28;20435;-60
2024/03/25 00:06:38;;;;;;;16.80;5.03;;;7.50;99.90;;;;;;5017197;28;20200;-61
2024/03/25 00:09:13;;;;;;;13.00;5.50;;;7.40;99.90;;;;;;5016790;28;20469;-61
2024/03/25 00:11:39;;;;;;;11.80;4.30;;;7.40;99.90;;;;;;5017178;28;20315;-61
2024/03/25 00:14:06;;;;;;;19.20;4.70;;;7.40;99.90;;;;;;5016986;28;20510;-61
2024/03/25 00:16:32;;;;;;;12.40;4.50;;;7.40;99.90;;;;;;5016999;28;20204;-61
2024/03/25 00:18:59;;;;;;;19.10;4.50;;;7.40;99.90;;;;;;5016932;28;20813;-61
2024/03/25 00:21:24;;;;;;;9.40;4.80;;;7.40;99.90;;;;;;5017014;28;20209;-60
2024/03/25 00:23:51;;;;;;;10.50;4.80;;;7.30;99.90;;;;;;5017028;28;20961;-61
2024/03/25 00:26:18;;;;;;;13.97;5.23;;;7.30;99.90;;;;;;5016807;28;20204;-61
2024/03/25 00:28:45;;;;;;;14.50;4.53;;;7.30;99.90;;;;;;5016441;28;21003;-61
2024/03/25 00:31:11;;;;;;;15.73;5.37;;;7.30;99.90;;;;;;5016654;28;20463;-61
2024/03/25 00:33:38;;;;;;;14.30;4.70;;;7.30;99.90;;;;;;5016239;28;20478;-61
2024/03/25 00:36:04;;;;;;;15.77;4.77;;;7.30;99.90;;;;;;5016724;28;20204;-61
2024/03/25 00:38:31;;;;;;;18.50;4.60;;;7.30;99.90;;;;;;5016583;28;20450;-61
2024/03/25 00:40:57;;;;;;;13.90;5.37;;;7.30;99.90;;;;;;5016470;28;20898;-61
2024/03/25 00:43:25;;;;;;;13.30;4.80;;;7.20;99.90;;;;;;5016551;28;20491;-61
2024/03/25 00:45:51;;;;;;;15.17;4.40;;;7.20;99.90;;;;;;5016821;28;20453;-61
2024/03/25 00:48:18;;;;;;;12.20;4.40;;;7.20;99.90;;;;;;5016468;28;20540;-61
2024/03/25 00:50:44;;;;;;;11.03;4.50;;;7.20;99.90;;;;;;5016267;28;20226;-61
2024/03/25 00:53:10;;;;;;;17.37;5.03;;;7.20;99.90;;;;;;5015708;28;20443;-61
2024/03/25 00:55:36;;;;;;;20.50;4.27;;;7.20;99.90;;;;;;5015646;28;20226;-60
2024/03/25 00:58:03;;;;;;;13.10;5.00;;;7.20;99.90;;;;;;5034517;28;20807;-61
2024/03/25 01:00:31;;;;;;;12.90;4.90;;;7.20;99.90;;;;;;5035782;28;20227;-61
2024/03/25 01:02:57;;;;;;;16.37;4.90;;;7.20;99.90;;;;;;5035772;28;20526;-61
2024/03/25 01:05:23;;;;;;;14.67;5.00;;;7.30;99.90;;;;;;5036208;28;20435;-61
2024/03/25 01:07:50;;;;;;;14.37;5.10;;;7.30;99.90;;;;;;5035516;28;20518;-61
2024/03/25 01:10:16;;;;;;;17.00;4.90;;;7.30;99.90;;;;;;5035171;28;20230;-60
2024/03/25 01:12:43;;;;;;;15.13;6.30;;;7.40;99.90;;;;;;5035712;28;20517;-61
2024/03/25 01:15:10;;;;;;;14.10;4.97;;;7.40;99.90;;;;;;5035359;28;20490;-61
2024/03/25 01:17:38;;;;;;;24.67;4.93;;;7.30;99.90;;;;;;5035674;28;20472;-61
2024/03/25 01:20:04;;;;;;;16.33;5.40;;;7.30;99.90;;;;;;5035543;28;20805;-60
2024/03/25 01:22:31;;;;;;;14.43;5.10;;;7.30;99.90;;;;;;5035317;28;20533;-60
2024/03/25 01:24:57;;;;;;;10.93;4.83;;;7.20;99.90;;;;;;5035500;28;20452;-61
2024/03/25 01:27:24;;;;;;;11.00;4.10;;;7.20;99.90;;;;;;5035468;28;20443;-61
2024/03/25 01:29:50;;;;;;;11.57;5.10;;;7.20;99.90;;;;;;5035399;28;20975;-61
2024/03/25 01:32:16;;;;;;;10.40;4.30;;;7.20;99.90;;;;;;5035397;28;20444;-61
2024/03/25 01:34:44;;;;;;;15.90;4.80;;;7.20;99.90;;;;;;5035420;28;20230;-61
2024/03/25 01:37:12;;;;;;;8.97;4.10;;;7.20;99.90;;;;;;5035373;28;20510;-61
2024/03/25 01:39:38;;;;;;;10.40;4.47;;;7.20;99.90;;;;;;5035302;28;20853;-61
2024/03/25 01:42:05;;;;;;;10.93;4.17;;;7.20;99.90;;;;;;5035204;28;20474;-61
2024/03/25 01:44:31;;;;;;;11.47;4.40;;;7.20;99.90;;;;;;5035210;28;20443;-61
2024/03/25 01:46:58;;;;;;;12.67;5.80;;;7.20;99.90;;;;;;5035181;28;20469;-61
2024/03/25 01:49:24;;;;;;;12.63;3.80;;;7.20;99.90;;;;;;5035045;28;20254;-61
2024/03/25 01:51:52;;;;;;;18.67;4.70;;;7.20;99.90;;;;;;5035044;28;20450;-61
2024/03/25 01:54:19;;;;;;;13.60;4.60;;;7.20;99.90;;;;;;5034868;28;20486;-61
2024/03/25 01:56:46;;;;;;;18.40;5.80;;;7.20;99.90;;;;;;5034845;28;20493;-61
2024/03/25 01:59:13;;;;;;;14.80;5.27;;;7.20;99.90;;;;;;5034896;28;20473;-61
2024/03/25 02:01:41;;;;;;;16.03;5.30;;;7.20;99.90;;;;;;5034756;28;20549;-61
2024/03/25 02:04:07;;;;;;;14.00;5.23;;;7.10;99.90;;;;;;5034774;28;20441;-61
2024/03/25 02:06:36;;;;;;;15.03;4.50;;;7.10;99.90;;;;;;5034744;28;20481;-61
2024/03/25 02:09:04;;;;;;;18.57;4.67;;;7.10;99.90;;;;;;5034722;28;20445;-60
2024/03/25 02:11:31;;;;;;;10.70;4.30;;;7.10;99.90;;;;;;5034765;28;20453;-61
2024/03/25 02:13:57;;;;;;;11.83;4.53;;;7.10;99.90;;;;;;5034463;28;20484;-61
2024/03/25 02:16:24;;;;;;;10.97;4.30;;;7.10;99.90;;;;;;5034518;28;20442;-61
2024/03/25 02:18:51;;;;;;;21.70;5.20;;;7.10;99.90;;;;;;5034570;28;20258;-61
2024/03/25 02:21:18;;;;;;;13.23;5.20;;;7.10;99.90;;;;;;5034175;28;20481;-61
2024/03/25 02:23:46;;;;;;;10.43;4.00;;;7.10;99.90;;;;;;5033758;28;20819;-61
2024/03/25 02:26:14;;;;;;;15.07;4.47;;;7.00;99.90;;;;;;5034397;28;20466;-60
2024/03/25 02:28:40;;;;;;;14.17;4.70;;;7.00;99.90;;;;;;5033996;28;20453;-61
2024/03/25 02:31:07;;;;;;;11.87;4.83;;;7.00;99.90;;;;;;5034230;28;20553;-60
2024/03/25 02:33:33;;;;;;;21.07;5.47;;;7.00;99.90;;;;;;5034240;28;20469;-61
2024/03/25 02:36:00;;;;;;;17.13;4.13;;;7.00;99.90;;;;;;5034211;28;20987;-60
2024/03/25 02:38:26;;;;;;;13.03;4.30;;;7.00;99.90;;;;;;5034262;28;20573;-60
2024/03/25 02:40:52;;;;;;;16.77;5.67;;;7.00;99.90;;;;;;5033645;28;20541;-61
2024/03/25 02:43:21;;;;;;;18.20;6.80;;;7.00;99.90;;;;;;5034067;28;20231;-61
2024/03/25 02:45:48;;;;;;;16.70;5.20;;;7.00;99.90;;;;;;5034092;28;20500;-60
2024/03/25 02:48:13;;;;;;;12.07;4.47;;;7.00;99.90;;;;;;5034028;28;20450;-60
2024/03/25 02:50:40;;;;;;;14.93;4.47;;;7.00;99.90;;;;;;5033845;28;20465;-61
2024/03/25 02:53:06;;;;;;;14.73;5.03;;;7.00;99.90;;;;;;5033916;28;20214;-61
2024/03/25 02:55:33;;;;;;;16.27;4.93;;;7.00;99.90;;;;;;5033691;28;20478;-61
2024/03/25 02:57:58;;;;;;;13.63;4.70;;;7.00;99.90;;;;;;5034601;28;20202;-61
2024/03/25 03:00:27;;;;;;;17.53;4.47;;;6.90;99.90;;;;;;5033377;28;20467;-61
2024/03/25 03:02:52;;;;;;;17.07;5.50;;;6.90;99.90;;;;;;5033760;28;20204;-61
2024/03/25 03:05:19;;;;;;;12.50;3.93;;;6.90;99.90;;;;;;5033807;28;20441;-61
2024/03/25 03:07:45;;;;;;;9.37;4.00;;;6.80;99.90;;;;;;5033805;28;20211;-61
2024/03/25 03:10:12;;;;;;;14.23;4.30;;;6.80;99.90;;;;;;5033551;28;21010;-61
2024/03/25 03:12:38;;;;;;;13.23;4.20;;;6.80;99.90;;;;;;5033503;28;20207;-61
2024/03/25 03:15:06;;;;;;;18.40;5.57;;;6.80;99.90;;;;;;5033462;28;20481;-61
2024/03/25 03:17:33;;;;;;;9.27;5.20;;;6.80;99.90;;;;;;5033478;28;20200;-61
2024/03/25 03:19:59;;;;;;;16.63;5.17;;;6.80;99.90;;;;;;5033452;28;20549;-61
2024/03/25 03:22:25;;;;;;;17.20;4.70;;;6.80;99.90;;;;;;5033497;28;20441;-61
2024/03/25 03:24:52;;;;;;;11.77;4.53;;;6.80;99.90;;;;;;5033069;28;20442;-61
2024/03/25 03:27:18;;;;;;;10.67;4.20;;;6.90;99.90;;;;;;5033161;28;20215;-61
2024/03/25 03:29:44;;;;;;;10.37;4.03;;;6.80;99.90;;;;;;5033245;28;20470;-61
2024/03/25 03:32:10;;;;;;;16.27;4.90;;;6.80;99.90;;;;;;5033279;28;20203;-61
2024/03/25 03:34:38;;;;;;;18.67;5.30;;;6.80;99.90;;;;;;5033256;28;20485;-61
2024/03/25 03:37:04;;;;;;;14.20;5.13;;;6.80;99.90;;;;;;5033338;28;20204;-61
2024/03/25 03:39:31;;;;;;;19.40;4.87;;;6.80;99.90;;;;;;5032891;28;20560;-61
2024/03/25 03:41:57;;;;;;;15.20;5.27;;;6.80;99.90;;;;;;5033507;28;20442;-61
2024/03/25 03:44:24;;;;;;;9.13;4.10;;;6.70;99.90;;;;;;5033249;28;20962;-61
2024/03/25 03:46:49;;;;;;;12.47;5.13;;;6.80;99.90;;;;;;5032967;28;20211;-61
2024/03/25 03:49:16;;;;;;;15.90;5.13;;;6.70;99.90;;;;;;5033059;28;20454;-61
2024/03/25 03:51:43;;;;;;;15.43;4.67;;;6.70;99.90;;;;;;5032806;28;20673;-61
2024/03/25 03:54:10;;;;;;;9.33;4.93;;;6.70;99.90;;;;;;5033228;28;20446;-61
2024/03/25 03:56:36;;;;;;;14.03;5.17;;;6.70;99.90;;;;;;5024248;28;20475;-61
2024/03/25 03:59:04;;;;;;;13.97;5.03;;;6.70;99.90;;;;;;5013340;28;20453;-61
2024/03/25 04:01:30;;;;;;;19.03;5.50;;;6.70;99.90;;;;;;5013568;28;20204;-61
2024/03/25 04:03:56;;;;;;;12.90;4.53;;;6.70;99.90;;;;;;5013306;28;20447;-61
2024/03/25 04:06:22;;;;;;;14.53;5.13;;;6.60;99.90;;;;;;5013086;28;20794;-61
2024/03/25 04:08:50;;;;;;;13.90;4.77;;;6.60;99.90;;;;;;5013241;28;20450;-61
2024/03/25 04:11:16;;;;;;;14.27;5.13;;;6.60;99.90;;;;;;5013175;28;20287;-62
2024/03/25 04:13:43;;;;;;;9.70;5.03;;;6.60;99.90;;;;;;5012916;28;20986;-62
2024/03/25 04:16:09;;;;;;;12.07;6.73;;;6.60;99.90;;;;;;5013147;28;20227;-61
2024/03/25 04:18:36;;;;;;;13.20;5.80;;;6.60;99.90;;;;;;5013029;28;20442;-62
2024/03/25 04:21:02;;;;;;;15.03;5.60;;;6.60;99.90;;;;;;5013049;28;20494;-62
2024/03/25 04:23:28;;;;;;;14.07;6.37;;;6.60;99.90;;;;;;5013030;28;20933;-61
2024/03/25 04:26:00;;;;;;;16.23;6.67;;;6.60;99.90;;;;;;5013060;28;20230;-61
2024/03/25 04:28:27;;;;;;;19.77;6.03;;;6.60;99.90;;;;;;5013062;28;20443;-61
2024/03/25 04:30:53;;;;;;;14.33;5.40;;;6.60;99.90;;;;;;5012717;28;21011;-61
2024/03/25 04:33:20;;;;;;;16.57;6.33;;;6.60;99.90;;;;;;5013061;28;20513;-61
2024/03/25 04:35:46;;;;;;;18.47;5.83;;;6.50;99.90;;;;;;5012993;28;20487;-61
